Time;durP1;ratioP1;P1;durP2;ratioP2;P2;SDS_P1;SDS_P2;PMS_P1;PMS_P2;Temp;Humidity;BMP_temperature;BMP_pressure;BME280_temperature;BME280_humidity;BME280_pressure;Samples;Min_cycle;Max_cycle;Signal;HPM_P1;HPM_P2
2022/01/16 00:04:39;;;;;;;26.65;10.70;;;;;;;0.20;86.41;101855.14;1567273;88;21365;-77
2022/01/16 00:07:05;;;;;;;29.77;11.12;;;;;;;0.20;86.37;101852.59;1608164;88;20935;-77
2022/01/16 00:09:32;;;;;;;29.80;13.38;;;;;;;0.19;86.34;101858.89;1607357;88;21002;-77
2022/01/16 00:12:00;;;;;;;23.42;10.38;;;;;;;0.19;86.33;101843.63;1610223;88;20966;-77
2022/01/16 00:14:29;;;;;;;32.85;11.30;;;;;;;0.19;86.37;101847.05;1607308;88;20955;-77
2022/01/16 00:16:55;;;;;;;28.62;11.33;;;;;;;0.20;86.44;101842.83;1609972;88;20922;-77
2022/01/16 00:19:21;;;;;;;24.67;11.75;;;;;;;0.22;86.43;101840.82;1610455;88;24461;-77
2022/01/16 00:21:48;;;;;;;23.62;10.93;;;;;;;0.23;86.44;101837.48;1607797;88;21822;-77
2022/01/16 00:24:14;;;;;;;23.18;10.50;;;;;;;0.26;86.46;101827.84;1610418;88;21891;-77
2022/01/16 00:26:41;;;;;;;24.60;10.23;;;;;;;0.28;86.44;101836.02;1591187;89;21849;-77
2022/01/16 00:29:08;;;;;;;26.95;10.85;;;;;;;0.29;86.42;101836.88;1593262;89;21016;-77
2022/01/16 00:31:37;;;;;;;23.52;10.90;;;;;;;0.29;86.42;101836.48;1570570;90;21473;-77
2022/01/16 00:34:06;;;;;;;30.77;11.45;;;;;;;0.30;86.42;101836.08;1547684;89;21012;-77
2022/01/16 00:36:32;;;;;;;27.58;10.58;;;;;;;0.30;86.41;101830.59;1577399;90;21051;-77
2022/01/16 00:38:58;;;;;;;26.73;10.93;;;;;;;0.33;86.43;101813.33;1539220;90;21160;-77
2022/01/16 00:41:25;;;;;;;;;;;;;;;0.32;86.40;101807.37;1577255;89;21526;-77
2022/01/16 00:43:53;;;;;;;30.75;11.40;;;;;;;0.32;86.40;101807.37;1560999;90;20225;-77
2022/01/16 00:46:20;;;;;;;29.87;11.78;;;;;;;0.31;86.39;101804.35;1560003;90;21559;-77
2022/01/16 00:48:47;;;;;;;28.55;10.53;;;;;;;0.33;86.45;101806.97;1571645;89;21010;-77
2022/01/16 00:51:15;;;;;;;28.32;10.90;;;;;;;0.35;86.47;101814.66;1575711;89;21432;-77
2022/01/16 00:53:43;;;;;;;25.27;11.68;;;;;;;0.36;86.42;101797.33;1577700;90;21154;-77
2022/01/16 00:56:10;;;;;;;31.48;12.18;;;;;;;0.35;86.42;101802.81;1550941;90;21863;-77
2022/01/16 00:58:36;;;;;;;37.10;13.18;;;;;;;0.37;86.43;101814.34;1579861;90;21049;-77
2022/01/16 01:01:02;;;;;;;31.93;12.82;;;;;;;0.36;86.43;101828.73;1551320;90;25265;-77
2022/01/16 01:03:30;;;;;;;32.53;12.58;;;;;;;0.37;86.42;101806.30;1552720;90;21667;-77
2022/01/16 01:05:56;;;;;;;37.23;11.53;;;;;;;0.37;86.42;101809.25;1547064;90;21082;-77
2022/01/16 01:08:23;;;;;;;29.55;10.72;;;;;;;0.36;86.37;101805.83;1544346;90;21079;-77
2022/01/16 01:10:52;;;;;;;39.70;25.23;;;;;;;0.36;86.42;101805.83;1570861;89;21092;-77
2022/01/16 01:13:31;;;;;;;36.17;13.62;;;;;;;0.37;86.43;101801.61;1542593;91;21196;-77
2022/01/16 01:15:58;;;;;;;31.97;12.20;;;;;;;0.38;86.42;101811.86;1575295;89;21067;-77
2022/01/16 01:18:20;;;;;;;28.25;11.78;;;;;;;0.37;86.41;101812.66;1572923;90;21159;-77
2022/01/16 01:20:50;;;;;;;18.50;8.53;;;;;;;0.38;86.41;101806.77;1565911;90;21158;-77
2022/01/16 01:23:16;;;;;;;22.13;8.53;;;;;;;0.36;86.35;101818.95;1565190;90;21143;-77
2022/01/16 01:25:42;;;;;;;21.57;8.18;;;;;;;0.36;86.31;101796.05;1560255;90;21388;-77
2022/01/16 01:28:09;;;;;;;25.27;8.55;;;;;;;0.34;86.32;101783.27;1554862;91;21649;-77
2022/01/16 01:30:38;;;;;;;30.52;9.70;;;;;;;0.37;86.38;101799.07;1554789;91;21110;-77
2022/01/16 01:33:04;;;;;;;24.80;9.68;;;;;;;0.37;86.40;101793.58;1565641;90;21129;-77
2022/01/16 01:35:36;;;;;;;23.57;9.23;;;;;;;0.41;86.42;101798.00;1569601;90;21153;-77
2022/01/16 01:37:58;;;;;;;17.07;8.98;;;;;;;0.40;86.40;101783.54;1553723;91;21087;-77
2022/01/16 01:40:26;;;;;;;21.87;8.65;;;;;;;0.42;86.41;101798.47;1551504;91;20956;-77
2022/01/16 01:51:34;;;;;;;24.47;9.18;;;;;;;0.49;86.37;101700.38;1570606;89;21171;-77
2022/01/16 01:54:01;;;;;;;26.48;9.08;;;;;;;0.49;86.39;101666.89;1564609;89;21090;-77
2022/01/16 01:56:28;;;;;;;31.37;9.68;;;;;;;0.47;86.34;101662.14;1567248;89;21476;-77
2022/01/16 01:58:58;;;;;;;29.12;9.73;;;;;;;0.45;86.36;101637.04;1570756;89;20995;-77
2022/01/16 02:01:25;;;;;;;29.92;10.03;;;;;;;0.45;86.42;101640.86;1568744;89;20946;-77
2022/01/16 02:03:52;;;;;;;17.10;9.10;;;;;;;0.44;86.41;101658.20;1567958;89;21018;-77
2022/01/16 02:06:27;;;;;;;24.02;8.70;;;;;;;0.45;86.46;101694.69;1567357;89;20976;-77
2022/01/16 02:08:58;;;;;;;27.42;11.08;;;;;;;0.45;86.46;101691.74;1565650;89;21093;-77
2022/01/16 02:11:29;;;;;;;23.52;9.55;;;;;;;0.45;86.47;101700.64;1565669;89;21060;-77
2022/01/16 02:14:03;;;;;;;26.57;8.98;;;;;;;0.44;86.42;101690.00;1566950;89;21003;-77
2022/01/16 02:30:56;;;;;;;27.22;8.98;;;;;;;0.42;86.45;101658.94;1587377;89;20968;-77
2022/01/16 02:33:23;;;;;;;27.15;8.55;;;;;;;0.40;86.40;101674.14;1582626;89;21030;-77
2022/01/16 02:35:29;;;;;;;22.22;8.55;;;;;;;0.40;86.45;101674.14;1568836;89;20901;-77
2022/01/16 02:37:55;;;;;;;23.47;8.28;;;;;;;0.41;86.45;101678.83;1569970;89;20986;-77
2022/01/16 02:40:25;;;;;;;14.60;5.50;;;;;;;0.40;86.47;101685.99;1570876;89;20921;-77
2022/01/16 02:42:51;;;;;;;25.68;8.18;;;;;;;0.40;86.45;101686.86;1575108;89;21147;-77
2022/01/16 02:45:31;;;;;;;16.50;7.55;;;;;;;0.41;86.42;101692.42;1569617;89;21500;-77
2022/01/16 02:48:03;;;;;;;30.85;9.20;;;;;;;0.40;86.45;101691.08;1572199;89;21060;-77
2022/01/16 02:50:30;;;;;;;27.77;7.53;;;;;;;0.40;86.46;101684.31;1599361;88;21184;-77
2022/01/16 02:52:56;;;;;;;22.37;7.55;;;;;;;0.40;86.46;101689.81;1599204;88;21092;-77
2022/01/16 02:55:23;;;;;;;15.90;7.05;;;;;;;0.40;86.43;101689.41;1598716;88;21101;-77
2022/01/16 02:57:53;;;;;;;25.50;8.43;;;;;;;0.40;86.45;101693.22;1602938;88;21149;-77
2022/01/16 03:00:22;;;;;;;20.80;7.60;;;;;;;0.40;86.45;101688.13;1595192;88;21085;-77
2022/01/16 03:02:49;;;;;;;20.50;7.58;;;;;;;0.40;86.46;101665.64;1598820;88;21097;-77
2022/01/16 03:05:16;;;;;;;29.40;8.05;;;;;;;0.40;86.46;101658.00;1597755;88;21113;-77
2022/01/16 03:07:44;;;;;;;32.35;7.78;;;;;;;0.39;86.43;101658.41;1599718;88;21081;-77
2022/01/16 03:12:54;;;;;;;24.30;7.30;;;;;;;0.38;86.45;101649.04;1601000;88;21085;-77
2022/01/16 03:15:21;;;;;;;21.70;7.67;;;;;;;0.40;86.48;101650.37;1595971;88;21113;-77
2022/01/16 03:21:53;;;;;;;23.42;9.18;;;;;;;0.40;86.48;101646.16;1599462;88;21092;-77
2022/01/16 03:23:04;;;;;;;27.00;8.40;;;;;;;0.39;86.44;101644.42;1595640;88;21160;-77
2022/01/16 03:25:30;;;;;;;28.73;7.83;;;;;;;0.39;86.49;101644.42;1571231;89;21374;-77
2022/01/16 03:27:56;;;;;;;23.98;7.55;;;;;;;0.39;86.45;101637.19;1575300;89;21370;-77
2022/01/16 03:30:22;;;;;;;34.73;8.43;;;;;;;0.38;86.45;101626.14;1575166;89;21623;-77
2022/01/16 03:32:48;;;;;;;34.10;8.28;;;;;;;0.38;86.50;101614.70;1548260;89;20951;-77
2022/01/16 03:35:14;;;;;;;26.47;8.53;;;;;;;0.38;86.51;101607.06;1575266;89;21720;-77
2022/01/16 03:37:40;;;;;;;26.27;8.75;;;;;;;0.38;86.50;101589.25;1575238;90;21541;-77
2022/01/16 03:40:10;;;;;;;33.65;9.98;;;;;;;0.38;86.50;101593.07;1577370;89;21189;-77
2022/01/16 03:42:38;;;;;;;28.80;9.55;;;;;;;0.40;86.51;101588.05;1569583;89;21018;-78
2022/01/16 03:45:06;;;;;;;35.90;20.57;;;;;;;0.40;86.55;101584.23;1575246;89;21042;-78
2022/01/16 03:47:33;;;;;;;27.87;9.48;;;;;;;0.42;86.52;101577.53;1571782;89;20979;-77
2022/01/16 03:49:59;;;;;;;28.47;8.28;;;;;;;0.42;86.53;101573.31;1571801;89;21430;-77
2022/01/16 03:52:26;;;;;;;21.73;8.03;;;;;;;0.43;86.54;101567.81;1594992;88;20993;-77
2022/01/16 03:54:51;;;;;;;20.32;6.83;;;;;;;0.43;86.52;101566.14;1584428;88;21064;-77
2022/01/16 03:57:18;;;;;;;25.77;7.75;;;;;;;0.43;86.49;101566.55;1595827;88;21719;-77
2022/01/16 03:59:44;;;;;;;26.15;7.55;;;;;;;0.42;86.48;101558.05;1604099;88;21039;-77
2022/01/16 04:02:10;;;;;;;15.25;7.45;;;;;;;0.41;86.49;101557.58;1597137;88;20990;-77
2022/01/16 04:04:36;;;;;;;30.08;8.58;;;;;;;0.42;86.54;101553.36;1600910;88;21505;-77
2022/01/16 04:07:03;;;;;;;21.37;8.15;;;;;;;0.43;86.56;101544.92;1600810;88;21025;-77
2022/01/16 04:09:29;;;;;;;27.55;8.00;;;;;;;0.43;86.56;101539.83;1583316;89;25542;-77
2022/01/16 04:11:57;;;;;;;21.60;8.53;;;;;;;0.44;86.53;101536.48;1586231;89;21051;-77
2022/01/16 04:17:14;;;;;;;;;;;;;;;0.42;86.54;101537.69;1596098;88;20996;-77
2022/01/16 04:19:40;;;;;;;20.02;7.45;;;;;;;0.43;86.59;101538.16;1596442;88;20483;-77
2022/01/16 04:22:07;;;;;;;24.85;8.25;;;;;;;0.44;86.58;101529.72;1603584;88;20992;-77
2022/01/16 04:24:34;;;;;;;22.17;6.90;;;;;;;0.44;86.58;101525.91;1596772;88;20958;-77
2022/01/16 04:27:02;;;;;;;29.63;7.67;;;;;;;0.43;86.53;101527.98;1603394;88;21448;-77
2022/01/16 04:29:28;;;;;;;33.90;8.43;;;;;;;0.43;86.56;101524.16;1603968;88;20916;-77
2022/01/16 04:31:55;;;;;;;20.95;7.50;;;;;;;0.42;86.54;101514.80;1607768;88;20960;-77
2022/01/16 04:34:21;;;;;;;22.60;7.80;;;;;;;0.44;86.57;101508.09;1606511;88;26301;-77
2022/01/16 04:36:47;;;;;;;24.67;7.65;;;;;;;0.44;86.56;101511.91;1577164;89;21376;-77
2022/01/16 04:39:17;;;;;;;28.40;8.20;;;;;;;0.45;86.57;101504.73;1576935;89;20924;-77
2022/01/16 04:44:28;;;;;;;22.93;8.85;;;;;;;0.47;86.58;101508.61;1576521;90;21363;-77
2022/01/16 04:46:55;;;;;;;29.82;8.55;;;;;;;0.48;86.60;101506.53;1548417;90;21629;-77
2022/01/16 04:49:21;;;;;;;28.50;8.03;;;;;;;0.48;86.59;101502.72;1575205;89;21092;-77
2022/01/16 04:51:49;;;;;;;18.05;7.60;;;;;;;0.49;86.59;101500.64;1578821;89;21040;-77
2022/01/16 04:54:15;;;;;;;31.17;7.97;;;;;;;0.50;86.58;101496.02;1578174;89;21192;-77
2022/01/16 04:56:41;;;;;;;19.87;8.05;;;;;;;0.50;86.56;101504.52;1576586;89;21087;-77
2022/01/16 04:59:08;;;;;;;23.02;7.35;;;;;;;0.51;86.56;101510.07;1577929;89;21097;-77
2022/01/16 05:01:34;;;;;;;22.30;7.87;;;;;;;0.51;86.59;101504.11;1577451;90;21172;-77
2022/01/16 05:04:00;;;;;;;22.35;7.50;;;;;;;0.51;86.60;101497.34;1572751;90;21124;-77
2022/01/16 05:06:26;;;;;;;28.67;9.10;;;;;;;0.52;86.56;101500.76;1567960;90;21495;-77
2022/01/16 05:08:52;;;;;;;25.62;7.75;;;;;;;0.52;86.58;101494.40;1537583;90;21114;-77
2022/01/16 05:11:25;;;;;;;37.07;9.20;;;;;;;0.52;86.59;101495.23;1557345;90;21050;-77
2022/01/16 05:19:00;;;;;;;30.62;8.45;;;;;;;0.55;86.61;101474.13;1575659;89;21433;-77
2022/01/16 05:21:26;;;;;;;33.42;8.08;;;;;;;0.55;86.55;101472.86;1578034;89;26664;-77
2022/01/16 05:23:52;;;;;;;29.92;7.80;;;;;;;0.54;86.53;101485.11;1574822;89;27508;-77
2022/01/16 05:26:25;;;;;;;23.45;8.10;;;;;;;0.54;86.58;101484.70;1575879;89;21125;-77
2022/01/16 05:28:47;;;;;;;22.90;8.20;;;;;;;0.54;86.55;101473.26;1562329;91;21121;-77
2022/01/16 05:31:13;;;;;;;30.95;8.90;;;;;;;0.53;86.55;101467.70;1549719;91;21161;-77
2022/01/16 05:33:39;;;;;;;29.72;9.00;;;;;;;0.54;86.57;101468.58;1546503;90;21113;-77
2022/01/16 05:36:05;;;;;;;25.50;9.43;;;;;;;0.54;86.59;101458.39;1553802;91;21133;-77
2022/01/16 05:38:32;;;;;;;25.48;8.80;;;;;;;0.55;86.58;101455.05;1554418;91;21105;-77
2022/01/16 05:40:58;;;;;;;24.63;8.18;;;;;;;0.55;86.55;101448.68;1559491;90;20978;-77
2022/01/16 05:43:24;;;;;;;27.17;8.48;;;;;;;0.56;86.53;101450.02;1566961;91;21133;-77
2022/01/16 05:45:50;;;;;;;28.80;8.87;;;;;;;0.56;86.54;101443.65;1544793;92;21108;-77
2022/01/16 05:48:15;;;;;;;26.70;8.95;;;;;;;0.55;86.58;101427.92;1544403;92;21747;-77
2022/01/16 05:50:41;;;;;;;29.43;9.20;;;;;;;0.55;86.55;101430.87;1545282;89;20889;-77
2022/01/16 05:53:07;;;;;;;30.05;9.08;;;;;;;0.56;86.58;101427.52;1550907;91;21082;-77
2022/01/16 05:55:36;;;;;;;22.02;8.65;;;;;;;0.56;86.56;101435.15;1553028;91;21094;-77
2022/01/16 05:58:01;;;;;;;24.52;8.45;;;;;;;0.56;86.59;101428.78;1556181;91;21121;-77
2022/01/16 06:00:27;;;;;;;28.15;8.68;;;;;;;0.56;86.61;101427.11;1546979;91;20991;-77
2022/01/16 06:02:53;;;;;;;30.48;9.23;;;;;;;0.58;86.60;101430.98;1554578;91;21681;-77
2022/01/16 06:05:19;;;;;;;25.05;8.25;;;;;;;0.58;86.59;101428.44;1551788;90;21122;-77
2022/01/16 06:07:51;;;;;;;31.55;8.43;;;;;;;0.57;86.59;101425.43;1566112;89;21036;-77
2022/01/16 06:10:13;;;;;;;26.80;9.33;;;;;;;0.57;86.60;101423.75;1568199;89;21086;-77
2022/01/16 06:12:39;;;;;;;30.12;9.65;;;;;;;0.58;86.60;101425.89;1568984;90;21091;-77
2022/01/16 06:15:06;;;;;;;27.43;8.50;;;;;;;0.58;86.56;101421.67;1569749;89;20945;-75
2022/01/16 06:17:31;;;;;;;;;;;;;;;0.58;86.55;101418.26;1572164;91;22240;-74
2022/01/16 06:19:58;;;;;;;29.75;8.75;;;;;;;0.57;86.51;101420.34;1561715;89;20293;-74
2022/01/16 06:22:24;;;;;;;29.57;7.20;;;;;;;0.57;86.53;101427.98;1562462;91;21079;-74
2022/01/16 06:24:50;;;;;;;36.70;10.88;;;;;;;0.57;86.56;101421.21;1542092;92;21159;-74
2022/01/16 06:27:16;;;;;;;29.57;8.15;;;;;;;0.56;86.52;101415.66;1525752;92;21108;-74
2022/01/16 06:29:42;;;;;;;30.68;8.35;;;;;;;0.56;86.48;101415.66;1531346;92;20922;-74
2022/01/16 06:32:08;;;;;;;23.90;7.33;;;;;;;0.55;86.51;101415.20;1556552;92;21725;-74
2022/01/16 06:34:34;;;;;;;32.63;8.58;;;;;;;0.54;86.50;101407.10;1589895;89;21109;-74
2022/01/16 06:37:00;;;;;;;27.98;8.20;;;;;;;0.54;86.46;101405.83;1599315;89;20968;-74
2022/01/16 06:39:29;;;;;;;27.75;8.00;;;;;;;0.54;86.46;101403.69;1599242;88;21063;-74
2022/01/16 06:41:56;;;;;;;24.70;7.17;;;;;;;0.54;86.46;101394.38;1598369;89;21126;-74
2022/01/16 06:44:23;;;;;;;24.52;7.62;;;;;;;0.53;86.51;101384.14;1569267;90;21702;-74
2022/01/16 06:46:49;;;;;;;23.80;7.58;;;;;;;0.54;86.50;101380.78;1573812;90;21218;-75
2022/01/16 06:49:16;;;;;;;22.35;7.05;;;;;;;0.53;86.45;101381.59;1573006;90;21162;-75
2022/01/16 06:51:41;;;;;;;18.85;6.72;;;;;;;0.52;86.46;101382.44;1573899;89;21111;-75
2022/01/16 06:54:08;;;;;;;29.57;7.22;;;;;;;0.51;86.41;101373.08;1574008;90;21122;-75
2022/01/16 06:56:34;;;;;;;25.97;6.67;;;;;;;0.49;86.44;101362.84;1558545;91;21165;-75
2022/01/16 06:59:00;;;;;;;23.10;6.55;;;;;;;0.49;86.43;101369.61;1546876;91;20995;-75
2022/01/16 07:01:26;;;;;;;19.20;5.60;;;;;;;0.47;86.43;101364.46;1519919;92;21116;-75
2022/01/16 07:03:56;;;;;;;33.42;7.12;;;;;;;0.47;86.44;101374.64;1577030;90;21139;-75
2022/01/16 07:06:23;;;;;;;20.35;5.90;;;;;;;0.48;86.42;101380.59;1558999;91;21536;-75
2022/01/16 07:08:49;;;;;;;21.25;5.42;;;;;;;0.48;86.43;101381.46;1518385;92;21157;-75
2022/01/16 07:11:16;;;;;;;26.52;5.83;;;;;;;0.47;86.43;101377.19;1564719;90;21118;-75
2022/01/16 07:13:42;;;;;;;19.55;5.55;;;;;;;0.48;86.43;101381.87;1573031;90;21579;-75
2022/01/16 07:16:09;;;;;;;;;;;;;;;0.49;86.46;101381.92;1580197;90;21083;-75
2022/01/16 07:18:35;;;;;;;23.38;7.12;;;;;;;0.51;86.46;101379.44;1542729;90;20219;-75
2022/01/16 07:21:01;;;;;;;21.15;6.58;;;;;;;0.53;86.45;101383.73;1552115;90;21102;-75
2022/01/16 07:23:27;;;;;;;23.70;5.83;;;;;;;0.53;86.45;101375.23;1566800;90;21174;-75
2022/01/16 07:25:53;;;;;;;22.75;6.17;;;;;;;0.54;86.43;101380.38;1606813;89;21089;-75
2022/01/16 07:28:21;;;;;;;27.80;9.65;;;;;;;0.55;86.45;101371.07;1604147;88;21127;-75
2022/01/16 07:30:48;;;;;;;19.12;7.12;;;;;;;0.55;86.43;101370.67;1596711;89;21069;-75
2022/01/16 07:33:15;;;;;;;19.20;7.15;;;;;;;0.56;86.45;101367.31;1564447;89;21080;-75
2022/01/16 07:35:41;;;;;;;25.75;7.53;;;;;;;0.58;86.41;101366.09;1545894;91;21099;-76
2022/01/16 07:38:08;;;;;;;27.98;6.17;;;;;;;0.59;86.43;101369.09;1573467;89;21086;-76
2022/01/16 07:40:36;;;;;;;22.05;6.60;;;;;;;0.60;86.40;101364.06;1574498;91;21476;-72
2022/01/16 07:43:02;;;;;;;26.73;6.70;;;;;;;0.61;86.40;101374.70;1576372;90;21403;-73
2022/01/16 07:45:29;;;;;;;24.63;6.55;;;;;;;0.63;86.40;101365.86;1576477;89;28119;-77
2022/01/16 07:47:55;;;;;;;25.55;6.22;;;;;;;0.65;86.42;101366.38;1574479;89;20967;-75
2022/01/16 07:50:21;;;;;;;28.25;7.53;;;;;;;0.67;86.39;101367.70;1574892;90;20933;-75
2022/01/16 07:52:50;;;;;;;20.10;6.15;;;;;;;0.68;86.40;101368.16;1572012;89;20967;-73
2022/01/16 07:55:18;;;;;;;21.52;6.10;;;;;;;0.70;86.40;101380.95;1567480;91;21492;-71
2022/01/16 07:57:44;;;;;;;18.15;6.28;;;;;;;0.70;86.37;101381.81;1579144;89;20911;-73
2022/01/16 08:00:12;;;;;;;19.75;5.62;;;;;;;0.72;86.37;101375.50;1576194;91;21363;-73
2022/01/16 08:02:38;;;;;;;20.43;7.12;;;;;;;0.73;86.36;101373.42;1569028;89;21004;-73
2022/01/16 08:05:05;;;;;;;20.62;5.87;;;;;;;0.75;86.38;101361.61;1576389;90;21012;-73
2022/01/16 08:07:31;;;;;;;;;;;;;;;0.75;86.33;101363.75;1576682;90;21385;-74
2022/01/16 08:09:57;;;;;;;17.65;5.25;;;;;;;0.75;86.30;101357.80;1576317;91;20255;-74
2022/01/16 08:12:23;;;;;;;21.25;6.17;;;;;;;0.77;86.33;101355.77;1576522;89;21637;-75
2022/01/16 08:14:49;;;;;;;22.10;6.60;;;;;;;0.80;86.37;101357.55;1571767;89;21480;-75
2022/01/16 08:17:15;;;;;;;29.07;6.40;;;;;;;0.82;86.33;101345.75;1576404;90;21050;-74
2022/01/16 08:19:41;;;;;;;26.15;6.05;;;;;;;0.82;86.32;101343.20;1576482;90;21691;-75
2022/01/16 08:22:07;;;;;;;22.52;6.22;;;;;;;0.83;86.31;101346.20;1575513;90;20958;-75
2022/01/16 08:24:33;;;;;;;20.35;6.45;;;;;;;0.85;86.32;101342.91;1575937;90;21074;-75
2022/01/16 08:26:59;;;;;;;24.47;6.80;;;;;;;0.76;86.45;101322.63;1575887;89;21812;-74
2022/01/16 08:29:25;;;;;;;20.40;6.23;;;;;;;0.76;86.45;101322.63;1573890;90;22050;-75
2022/01/16 08:31:51;;;;;;;25.43;6.87;;;;;;;0.88;86.26;101343.41;1566093;91;21019;-74
2022/01/16 08:34:17;;;;;;;28.95;6.83;;;;;;;0.89;86.26;101343.88;1575445;90;21158;-75
2022/01/16 08:36:43;;;;;;;25.47;6.17;;;;;;;0.92;86.32;101352.89;1574082;89;20952;-73
2022/01/16 08:39:09;;;;;;;27.35;8.25;;;;;;;0.94;86.32;101337.27;1574266;89;22535;-80
2022/01/16 08:41:37;;;;;;;24.20;7.40;;;;;;;0.95;86.25;101337.32;1579243;89;21143;-73
2022/01/16 08:44:05;;;;;;;22.70;7.95;;;;;;;0.96;86.23;101326.73;1574929;89;21383;-78
2022/01/16 08:46:33;;;;;;;26.68;8.10;;;;;;;0.97;86.24;101328.45;1574592;89;22529;-78
2022/01/16 08:48:59;;;;;;;32.67;9.75;;;;;;;0.98;86.26;101329.78;1575273;89;21174;-77
2022/01/16 08:51:25;;;;;;;73.78;30.55;;;;;;;0.99;86.26;101317.92;1575371;89;21516;-77
2022/01/16 08:53:51;;;;;;;31.15;9.25;;;;;;;1.01;86.27;101307.78;1575638;89;21115;-77
2022/01/16 08:56:17;;;;;;;27.27;9.00;;;;;;;1.03;86.25;101304.89;1565563;89;21087;-77
2022/01/16 08:58:43;;;;;;;22.15;9.60;;;;;;;1.05;86.27;101308.31;1576212;89;21507;-78
2022/01/16 09:01:10;;;;;;;32.45;10.20;;;;;;;1.05;86.21;101302.81;1576263;88;21102;-78
2022/01/16 09:03:38;;;;;;;35.80;10.48;;;;;;;1.07;86.27;101283.36;1572070;89;21182;-78
2022/01/16 09:06:04;;;;;;;28.45;10.65;;;;;;;1.12;86.29;101276.73;1567778;91;21187;-78
2022/01/16 09:08:30;;;;;;;32.83;10.58;;;;;;;1.16;86.28;101273.88;1568443;89;21110;-78
2022/01/16 09:10:56;;;;;;;32.40;10.70;;;;;;;1.18;86.26;101267.16;1571961;91;21665;-78
2022/01/16 09:13:22;;;;;;;29.87;10.90;;;;;;;1.20;86.27;101265.53;1572739;89;21560;-77
2022/01/16 09:15:50;;;;;;;;;;;;;;;1.24;86.28;101258.44;1575377;90;21604;-77
2022/01/16 09:18:18;;;;;;;29.07;11.03;;;;;;;1.26;86.25;101251.72;1573733;89;20567;-78
2022/01/16 09:20:46;;;;;;;26.62;10.43;;;;;;;1.28;86.23;101244.58;1569109;89;21900;-78
2022/01/16 09:23:12;;;;;;;36.03;11.93;;;;;;;1.29;86.22;101239.08;1575212;91;21516;-78
2022/01/16 09:25:39;;;;;;;32.60;11.48;;;;;;;1.30;86.19;101244.22;1544718;91;21658;-78
2022/01/16 09:28:06;;;;;;;34.75;12.43;;;;;;;1.29;86.16;101237.39;1565873;89;21032;-78
2022/01/16 09:30:33;;;;;;;40.70;12.98;;;;;;;1.29;86.17;101243.76;1570228;89;21406;-78
2022/01/16 09:32:59;;;;;;;43.90;13.95;;;;;;;1.30;86.19;101239.12;1554454;91;21611;-78
2022/01/16 09:35:26;;;;;;;30.55;12.78;;;;;;;1.32;86.20;101236.63;1556600;89;21681;-78
2022/01/16 09:37:52;;;;;;;43.55;13.68;;;;;;;1.33;86.21;101232.85;1561551;91;27416;-77
2022/01/16 09:40:21;;;;;;;38.85;13.28;;;;;;;1.34;86.19;101226.08;1538614;91;21075;-77
2022/01/16 09:42:48;;;;;;;34.53;13.55;;;;;;;1.36;86.19;101226.13;1563193;89;21747;-78
2022/01/16 09:45:17;;;;;;;46.00;14.73;;;;;;;1.36;86.21;101228.26;1546027;90;21591;-78
2022/01/16 09:47:45;;;;;;;39.45;13.88;;;;;;;1.37;86.17;101222.34;1546014;90;21462;-78
2022/01/16 09:50:17;;;;;;;37.83;12.63;;;;;;;1.38;86.21;101222.80;1554683;92;20950;-78
2022/01/16 09:52:45;;;;;;;35.70;13.80;;;;;;;1.38;86.14;101220.25;1566170;91;21494;-78
2022/01/16 09:55:12;;;;;;;39.15;12.95;;;;;;;1.40;86.23;101213.52;1553211;92;21613;-78
2022/01/16 09:57:40;;;;;;;42.40;12.93;;;;;;;1.43;86.17;101207.66;1545510;92;21560;-77
2022/01/16 10:00:12;;;;;;;35.33;13.38;;;;;;;1.44;86.19;101208.98;1550022;90;21110;-78
2022/01/16 10:02:38;;;;;;;40.35;13.08;;;;;;;1.47;86.21;101200.56;1566392;89;21466;-78
2022/01/16 10:05:38;;;;;;;43.60;13.75;;;;;;;1.51;86.22;101196.88;1553127;90;21121;-78
2022/01/16 10:08:09;;;;;;;38.08;13.58;;;;;;;1.52;86.16;101195.19;1548644;91;21117;-78
2022/01/16 10:10:42;;;;;;;41.75;14.13;;;;;;;1.54;86.16;101187.19;1561025;89;20924;-77
2022/01/16 10:13:33;;;;;;;36.53;13.93;;;;;;;1.56;86.22;101178.73;1543612;91;20967;-77
2022/01/16 10:15:58;;;;;;;38.33;14.25;;;;;;;1.59;86.17;101180.09;1553077;90;23885;-78
2022/01/16 10:18:39;;;;;;;33.73;14.53;;;;;;;1.62;86.19;101176.77;1525500;91;21004;-77
2022/01/16 10:21:08;;;;;;;34.55;13.60;;;;;;;1.63;86.16;101169.17;1553343;90;21045;-78
2022/01/16 10:23:43;;;;;;;44.10;13.60;;;;;;;1.65;86.12;101164.12;1571698;89;20969;-77
2022/01/16 10:26:20;;;;;;;41.00;16.00;;;;;;;1.66;86.10;101159.06;1567161;89;20985;-77
2022/01/16 10:28:46;;;;;;;39.55;14.43;;;;;;;1.69;86.13;101170.17;1545135;92;21021;-77
2022/01/16 10:31:23;;;;;;;41.30;14.90;;;;;;;1.71;86.13;101171.08;1547145;92;21109;-76
2022/01/16 10:33:50;;;;;;;46.75;15.78;;;;;;;1.72;86.11;101163.48;1542623;90;21659;-76
2022/01/16 10:36:38;;;;;;;37.23;15.70;;;;;;;1.76;86.11;101160.61;1555689;90;21077;-76
2022/01/16 10:39:09;;;;;;;37.73;14.98;;;;;;;1.76;86.04;101154.23;1556418;90;21517;-76
2022/01/16 10:41:36;;;;;;;34.48;14.03;;;;;;;1.78;86.09;101145.80;1548105;92;20952;-76
2022/01/16 10:44:03;;;;;;;33.20;14.33;;;;;;;1.79;86.08;101140.30;1544286;92;21111;-76
2022/01/16 10:46:29;;;;;;;;;;;;;;;1.81;86.09;101128.05;1565706;91;21116;-76
2022/01/16 10:49:17;;;;;;;38.40;16.32;;;;;;;1.83;86.00;101112.38;1564467;90;25386;-76
2022/01/16 10:52:06;;;;;;;39.60;15.35;;;;;;;1.83;86.03;101104.73;1557425;91;21502;-76
2022/01/16 10:54:36;;;;;;;36.83;14.83;;;;;;;1.87;86.05;101097.62;1538902;90;21601;-77
2022/01/16 10:57:26;;;;;;;43.95;15.98;;;;;;;1.87;86.04;101091.23;1539524;90;21083;-77
2022/01/16 11:00:17;;;;;;;35.48;15.50;;;;;;;1.91;86.05;101081.98;1551599;90;21083;-77
2022/01/16 11:02:50;;;;;;;39.60;15.68;;;;;;;1.92;86.07;101081.16;1543368;92;21152;-77
2022/01/16 11:05:23;;;;;;;38.05;15.93;;;;;;;1.96;86.07;101070.22;1549769;91;21078;-77
2022/01/16 11:08:12;;;;;;;40.55;15.70;;;;;;;1.99;86.09;101072.44;1559109;90;20950;-77
2022/01/16 11:10:42;;;;;;;30.32;15.78;;;;;;;2.03;86.09;101066.14;1531404;91;20979;-77
2022/01/16 11:13:21;;;;;;;36.80;15.63;;;;;;;2.06;86.07;101063.27;1553189;92;20948;-77
2022/01/16 11:15:51;;;;;;;35.90;16.73;;;;;;;2.11;86.07;101054.42;1554122;90;20998;-77
2022/01/16 11:18:20;;;;;;;41.08;17.42;;;;;;;2.15;86.07;101046.02;1557078;90;20985;-77
2022/01/16 11:20:56;;;;;;;34.10;15.90;;;;;;;2.17;86.02;101036.30;1547909;90;21410;-77
2022/01/16 11:26:05;;;;;;;32.95;15.78;;;;;;;2.21;86.00;101034.28;1551731;90;21057;-76
2022/01/16 11:28:33;;;;;;;31.35;14.63;;;;;;;2.24;85.97;101030.94;1527696;91;21030;-76
2022/01/16 11:31:03;;;;;;;45.30;16.57;;;;;;;2.23;85.94;101024.11;1597763;88;20958;-76
2022/01/16 11:33:33;;;;;;;32.58;15.55;;;;;;;2.22;85.88;101027.48;1583581;88;20965;-76
2022/01/16 11:36:12;;;;;;;36.25;16.05;;;;;;;2.21;85.86;101020.66;1577567;89;20983;-77
2022/01/16 11:38:43;;;;;;;32.03;15.88;;;;;;;2.21;85.88;101020.66;1590196;88;20909;-77
2022/01/16 11:41:31;;;;;;;30.55;15.63;;;;;;;2.21;85.89;101016.83;1587292;88;20954;-77
2022/01/16 11:43:56;;;;;;;35.30;18.17;;;;;;;2.20;85.89;101010.01;1582243;88;20950;-76
2022/01/16 11:46:25;;;;;;;33.13;16.25;;;;;;;2.20;85.95;100996.84;1595547;88;21002;-77
2022/01/16 11:49:02;;;;;;;36.55;16.90;;;;;;;2.23;85.96;100999.46;1586400;88;20973;-77
2022/01/16 11:51:41;;;;;;;46.28;17.25;;;;;;;2.23;85.89;100992.22;1592517;89;20912;-77
2022/01/16 11:54:26;;;;;;;44.35;18.35;;;;;;;2.24;85.88;101000.33;1587162;89;20984;-77
2022/01/16 11:56:57;;;;;;;41.13;18.70;;;;;;;2.26;85.94;100999.53;1580102;88;20947;-77
2022/01/16 11:59:30;;;;;;;47.25;19.40;;;;;;;2.27;85.90;100998.71;1582069;88;20993;-77
2022/01/16 12:02:02;;;;;;;47.78;18.95;;;;;;;2.28;85.88;100986.81;1585473;88;21026;-77
2022/01/16 12:04:36;;;;;;;34.60;17.35;;;;;;;2.29;85.87;100977.92;1599533;88;20936;-77
2022/01/16 12:07:20;;;;;;;35.65;16.95;;;;;;;2.29;85.87;100975.38;1599395;88;20984;-77
2022/01/16 12:12:21;;;;;;;39.78;17.85;;;;;;;2.24;85.78;100964.20;1598452;88;20962;-77
2022/01/16 12:15:18;;;;;;;42.95;17.85;;;;;;;2.24;85.85;100973.13;1588086;88;21471;-77
2022/01/16 12:17:48;;;;;;;46.68;20.45;;;;;;;2.23;85.81;100973.09;1583275;88;20977;-77